logo
Search for airport 
image banner adimage banner adimage banner ad
image banner ad

MMRSH - Rancho Sierra Hermosa

Located in San Buenaventura, Mexico

ICAO - , IATA -

Data provided by Airmate  

General information

Coordinates: N27°57'22" W102°3'60"
Elevation is 3451 feet MSL.
Magnetic variation is 5° East
View others Airports in Coahuila

Operational data

Special qualification required
Current time UTC:
Current local time:
Weather at : - ( 0 km )
METAR: YBSU 180642Z AUTO 13007KT 9999 // BKN014 23/20 Q1014 RF00.0/000.2
View NOTAMs / SUP AIP / TFR affecting this airport [VIEW]
Communications frequencies: [VIEW]

Runways:

RWY identifierQFULength (ft)Width (ft)SurfaceLDA (ft)
32322°4387111DIRT
14142°4387111DIRT

Airport contact information

Address: San Buenaventura Mexico

Satellite view of MMRSH